Time;durP1;ratioP1;P1;durP2;ratioP2;P2;SDS_P1;SDS_P2;PMS_P1;PMS_P2;Temp;Humidity;BMP_temperature;BMP_pressure;BME280_temperature;BME280_humidity;BME280_pressure;Samples;Min_cycle;Max_cycle;Signal;HPM_P1;HPM_P2
2023/09/17 00:00:21;;;;;;;;;;;15.70;99.90;;;;;;5112256;27;19938;-72
2023/09/17 00:02:46;;;;;;;;;;;15.60;99.90;;;;;;5110957;28;19968;-72
2023/09/17 00:05:12;;;;;;;;;;;15.60;99.90;;;;;;5111715;27;19931;-72
2023/09/17 00:07:37;;;;;;;;;;;15.60;99.90;;;;;;5111576;27;20344;-72
2023/09/17 00:10:03;;;;;;;;;;;15.70;99.90;;;;;;5092090;28;20950;-72
2023/09/17 00:12:29;;;;;;;;;;;15.60;99.90;;;;;;5110797;28;19924;-72
2023/09/17 00:14:54;;;;;;;;;;;15.60;99.90;;;;;;5111892;27;20038;-72
2023/09/17 00:17:20;;;;;;;;;;;15.60;1.00;;;;;;5092561;28;20419;-72
2023/09/17 00:19:45;;;;;;;;;;;15.60;99.90;;;;;;5110443;28;19923;-72
2023/09/17 00:22:14;;;;;;;;;;;15.50;99.90;;;;;;5110521;28;20285;-71
2023/09/17 00:24:43;;;;;;;;;;;15.50;99.90;;;;;;5092048;28;20278;-72
2023/09/17 00:27:08;;;;;;;;;;;15.50;99.90;;;;;;5110621;28;20014;-71
2023/09/17 00:29:34;;;;;;;;;;;15.50;99.90;;;;;;5111196;27;20045;-72
2023/09/17 00:32:00;;;;;;;;;;;15.50;99.90;;;;;;5110737;27;19989;-71
2023/09/17 00:34:25;;;;;;;;;;;15.50;99.90;;;;;;5109862;27;20435;-72
2023/09/17 00:36:51;;;;;;;;;;;15.40;99.90;;;;;;5107634;28;20283;-72
2023/09/17 00:39:17;;;;;;;;;;;15.40;99.90;;;;;;5110156;28;20385;-72
2023/09/17 00:41:42;;;;;;;;;;;15.40;99.90;;;;;;5112709;27;20013;-72
2023/09/17 00:44:08;;;;;;;;;;;15.40;1.00;;;;;;5114719;27;20383;-72
2023/09/17 00:46:34;;;;;;;;;;;15.40;1.00;;;;;;5109839;28;19923;-72
2023/09/17 00:49:00;;;;;;;;;;;15.40;1.00;;;;;;5101464;27;20154;-71
2023/09/17 00:51:26;;;;;;;;;;;15.40;1.00;;;;;;5113545;27;19923;-71
2023/09/17 00:53:54;;;;;;;;;;;15.30;1.00;;;;;;5074349;28;19923;-71
2023/09/17 00:56:19;;;;;;;;;;;15.30;1.00;;;;;;5101542;28;20010;-71
2023/09/17 00:58:45;;;;;;;;;;;15.30;1.00;;;;;;5117196;27;20019;-72
2023/09/17 01:01:13;;;;;;;;;;;15.30;1.00;;;;;;5092484;28;19932;-72
2023/09/17 01:03:39;;;;;;;;;;;15.30;1.00;;;;;;5074460;28;19935;-72
2023/09/17 01:06:06;;;;;;;;;;;15.40;1.00;;;;;;5110148;28;20417;-72
2023/09/17 01:08:32;;;;;;;;;;;15.30;1.00;;;;;;5090636;28;20401;-72
2023/09/17 01:10:58;;;;;;;;;;;15.30;1.00;;;;;;5109880;28;19969;-72
2023/09/17 01:13:24;;;;;;;;;;;15.30;1.00;;;;;;5108933;28;20451;-72
2023/09/17 01:15:51;;;;;;;;;;;15.20;1.00;;;;;;5109518;28;19923;-72
2023/09/17 01:18:21;;;;;;;;;;;15.20;1.00;;;;;;5109694;28;19961;-72
2023/09/17 01:21:07;;;;;;;;;;;15.20;1.00;;;;;;5109746;28;19969;-72
2023/09/17 01:23:40;;;;;;;;;;;15.20;1.00;;;;;;5099399;28;19927;-72
2023/09/17 01:26:15;;;;;;;;;;;15.20;25.90;;;;;;5109151;28;19975;-72
2023/09/17 01:28:41;;;;;;;;;;;15.10;58.40;;;;;;5109401;28;20423;-72
2023/09/17 01:31:09;;;;;;;;;;;15.10;63.40;;;;;;5109946;28;19923;-72
2023/09/17 01:33:35;;;;;;;;;;;15.20;69.30;;;;;;5109785;28;20310;-72
2023/09/17 01:36:05;;;;;;;;;;;15.10;92.30;;;;;;5093382;28;20004;-72
2023/09/17 01:38:33;;;;;;;;;;;15.10;99.90;;;;;;5111242;28;19967;-72
2023/09/17 01:41:01;;;;;;;;;;;15.10;99.90;;;;;;5105198;28;19976;-72
2023/09/17 01:43:26;;;;;;;;;;;15.10;99.90;;;;;;5106927;28;19970;-72
2023/09/17 01:45:52;;;;;;;;;;;15.10;99.90;;;;;;5109286;28;19963;-72
2023/09/17 01:48:18;;;;;;;;;;;15.10;99.90;;;;;;5102591;28;20352;-72
2023/09/17 01:50:43;;;;;;;;;;;15.10;99.90;;;;;;5091789;28;20003;-72
2023/09/17 01:53:11;;;;;;;;;;;15.10;99.90;;;;;;5119859;28;19967;-72
2023/09/17 01:55:36;;;;;;;;;;;15.10;99.90;;;;;;5092216;28;20010;-72
2023/09/17 01:58:03;;;;;;;;;;;15.10;99.90;;;;;;5122870;28;20457;-72
2023/09/17 02:00:28;;;;;;;;;;;15.10;99.90;;;;;;5090788;28;20006;-72
2023/09/17 02:02:54;;;;;;;;;;;15.10;99.90;;;;;;5110087;28;20018;-72
2023/09/17 02:05:25;;;;;;;;;;;15.10;99.90;;;;;;5113648;28;19967;-72
2023/09/17 02:07:51;;;;;;;;;;;15.10;99.90;;;;;;5113693;27;19923;-72
2023/09/17 02:10:16;;;;;;;;;;;15.10;99.90;;;;;;5077946;28;19923;-72
2023/09/17 02:12:42;;;;;;;;;;;15.00;99.90;;;;;;5113768;27;20018;-72
2023/09/17 02:15:09;;;;;;;;;;;15.00;99.90;;;;;;5100534;28;20293;-72
2023/09/17 02:17:35;;;;;;;;;;;15.00;99.90;;;;;;5111307;28;20042;-72
2023/09/17 02:20:00;;;;;;;;;;;15.00;99.90;;;;;;5112432;27;20006;-72
2023/09/17 02:22:26;;;;;;;;;;;15.00;99.90;;;;;;5112795;28;20336;-72
2023/09/17 02:24:51;;;;;;;;;;;15.00;99.90;;;;;;5113088;27;19963;-71
2023/09/17 02:27:17;;;;;;;;;;;15.00;99.90;;;;;;5112738;28;19928;-72
2023/09/17 02:29:43;;;;;;;;;;;14.90;99.90;;;;;;5112837;28;19928;-72
2023/09/17 02:32:10;;;;;;;;;;;14.90;99.90;;;;;;5112619;28;20010;-72
2023/09/17 02:34:37;;;;;;;;;;;15.00;99.90;;;;;;5112890;27;20344;-72
2023/09/17 02:37:02;;;;;;;;;;;14.90;99.90;;;;;;5112798;28;20511;-71
2023/09/17 02:39:28;;;;;;;;;;;14.90;99.90;;;;;;5112785;28;19974;-72
2023/09/17 02:41:53;;;;;;;;;;;14.90;99.90;;;;;;5112823;27;19923;-72
2023/09/17 02:44:20;;;;;;;;;;;14.90;99.90;;;;;;5112292;28;19967;-72
2023/09/17 02:46:46;;;;;;;;;;;14.90;99.90;;;;;;5077092;28;19934;-72
2023/09/17 02:49:11;;;;;;;;;;;15.00;99.90;;;;;;5113540;27;19923;-72
2023/09/17 02:51:37;;;;;;;;;;;15.00;99.90;;;;;;5094443;28;19971;-72
2023/09/17 02:54:03;;;;;;;;;;;14.90;99.90;;;;;;5098596;27;19930;-72
2023/09/17 02:56:29;;;;;;;;;;;14.90;99.90;;;;;;5119804;27;19950;-72
2023/09/17 02:58:55;;;;;;;;;;;15.00;99.90;;;;;;5110748;28;19924;-72
2023/09/17 03:01:23;;;;;;;;;;;15.00;99.90;;;;;;5113121;27;19978;-72
2023/09/17 03:03:48;;;;;;;;;;;14.90;99.90;;;;;;5112304;27;20820;-72
2023/09/17 03:06:14;;;;;;;;;;;15.00;99.90;;;;;;5111723;28;20010;-72
2023/09/17 03:08:43;;;;;;;;;;;15.00;99.90;;;;;;5112059;28;19928;-72
2023/09/17 03:11:12;;;;;;;;;;;15.00;99.90;;;;;;5112437;28;19968;-72
2023/09/17 03:13:40;;;;;;;;;;;15.00;99.90;;;;;;5098744;28;20293;-72
2023/09/17 03:16:06;;;;;;;;;;;15.00;99.90;;;;;;5111407;28;19924;-72
2023/09/17 03:18:31;;;;;;;;;;;15.00;99.90;;;;;;5105366;28;19934;-72
2023/09/17 03:20:57;;;;;;;;;;;15.00;99.90;;;;;;5093804;28;19931;-72
2023/09/17 03:23:22;;;;;;;;;;;14.90;99.90;;;;;;5110359;27;19924;-72
2023/09/17 03:25:48;;;;;;;;;;;14.90;99.90;;;;;;5130595;27;19923;-72
2023/09/17 03:28:14;;;;;;;;;;;14.90;99.90;;;;;;5123879;27;19930;-72
2023/09/17 03:30:39;;;;;;;;;;;14.90;99.90;;;;;;5131491;27;19927;-72
2023/09/17 03:33:05;;;;;;;;;;;14.90;99.90;;;;;;5114483;27;20022;-72
2023/09/17 03:35:34;;;;;;;;;;;14.90;99.90;;;;;;5113182;27;20076;-72
2023/09/17 03:37:59;;;;;;;;;;;14.90;1.00;;;;;;5112614;27;20448;-72
2023/09/17 03:40:25;;;;;;;;;;;15.00;1.00;;;;;;5113496;27;19931;-72
2023/09/17 03:42:50;;;;;;;;;;;15.00;1.00;;;;;;5093113;28;20509;-72
2023/09/17 03:45:16;;;;;;;;;;;15.10;1.00;;;;;;5111560;28;19930;-72
2023/09/17 03:47:42;;;;;;;;;;;15.10;1.00;;;;;;5112902;27;19928;-72
2023/09/17 03:50:08;;;;;;;;;;;15.10;1.00;;;;;;5111884;27;19947;-72
2023/09/17 03:52:35;;;;;;;;;;;15.10;1.00;;;;;;5110852;28;20018;-72
2023/09/17 03:55:01;;;;;;;;;;;15.20;1.00;;;;;;5111886;27;19942;-72
2023/09/17 03:57:27;;;;;;;;;;;15.20;1.00;;;;;;5105624;28;19932;-73
2023/09/17 03:59:54;;;;;;;;;;;15.20;1.00;;;;;;5102925;27;19925;-73
2023/09/17 04:02:20;;;;;;;;;;;15.30;1.00;;;;;;5115868;27;19924;-72
2023/09/17 04:04:46;;;;;;;;;;;15.30;1.00;;;;;;5095352;28;20018;-73
2023/09/17 04:07:12;;;;;;;;;;;15.40;1.00;;;;;;5117644;27;19931;-73
2023/09/17 04:09:38;;;;;;;;;;;15.40;1.00;;;;;;5078518;28;19928;-73
2023/09/17 04:12:04;;;;;;;;;;;15.40;1.00;;;;;;5116148;27;19993;-73
2023/09/17 04:14:31;;;;;;;;;;;15.50;1.00;;;;;;5117392;27;19923;-73
2023/09/17 04:17:00;;;;;;;;;;;15.60;1.00;;;;;;5096087;28;19924;-73
2023/09/17 04:19:27;;;;;;;;;;;15.60;1.00;;;;;;5100963;27;19951;-73
2023/09/17 04:21:52;;;;;;;;;;;15.70;1.00;;;;;;5111106;28;19927;-73
2023/09/17 04:24:18;;;;;;;;;;;15.70;1.00;;;;;;5111464;27;19954;-72
2023/09/17 04:26:45;;;;;;;;;;;15.80;1.00;;;;;;5110923;27;20408;-72
2023/09/17 04:29:12;;;;;;;;;;;15.80;1.00;;;;;;5110505;28;19949;-72
2023/09/17 04:31:37;;;;;;;;;;;15.80;1.00;;;;;;5111842;27;19924;-72
2023/09/17 04:34:03;;;;;;;;;;;15.90;1.00;;;;;;5112113;27;19956;-72
2023/09/17 04:36:29;;;;;;;;;;;15.90;1.00;;;;;;5114404;27;19924;-73
2023/09/17 04:38:55;;;;;;;;;;;16.00;1.00;;;;;;5110988;27;19992;-72
2023/09/17 04:41:20;;;;;;;;;;;16.00;1.00;;;;;;5113634;27;19928;-73
2023/09/17 04:43:46;;;;;;;;;;;16.00;1.00;;;;;;5112998;27;19971;-73
2023/09/17 04:46:12;;;;;;;;;;;16.00;1.00;;;;;;5113759;27;19952;-72
2023/09/17 04:48:38;;;;;;;;;;;16.10;1.00;;;;;;5112443;27;20015;-72
2023/09/17 04:51:05;;;;;;;;;;;16.00;1.00;;;;;;5097217;27;19969;-72
2023/09/17 04:53:30;;;;;;;;;;;16.10;1.00;;;;;;5115275;27;19924;-72
2023/09/17 04:55:56;;;;;;;;;;;16.10;1.00;;;;;;5123276;27;19923;-72
2023/09/17 04:58:21;;;;;;;;;;;16.10;1.00;;;;;;5108789;27;19923;-72
2023/09/17 05:00:47;;;;;;;;;;;16.20;1.00;;;;;;5109339;27;19930;-72
2023/09/17 05:03:12;;;;;;;;;;;16.20;1.00;;;;;;5116960;27;20026;-72
2023/09/17 05:05:38;;;;;;;;;;;16.30;1.00;;;;;;5109773;28;19924;-72
2023/09/17 05:08:04;;;;;;;;;;;16.40;1.00;;;;;;5110528;28;19924;-72
2023/09/17 05:10:30;;;;;;;;;;;16.40;1.00;;;;;;5109717;28;19923;-72
2023/09/17 05:12:56;;;;;;;;;;;16.50;1.00;;;;;;5110303;28;20400;-72
2023/09/17 05:15:22;;;;;;;;;;;16.50;1.00;;;;;;5115489;28;19930;-72
2023/09/17 05:17:48;;;;;;;;;;;16.60;1.00;;;;;;5098649;28;19924;-73
2023/09/17 05:20:13;;;;;;;;;;;16.60;1.00;;;;;;5109614;28;19927;-73
2023/09/17 05:22:39;;;;;;;;;;;16.60;1.00;;;;;;5109910;28;19928;-73
2023/09/17 05:25:07;;;;;;;;;;;16.60;1.00;;;;;;5109672;28;19928;-72
2023/09/17 05:27:33;;;;;;;;;;;16.60;1.00;;;;;;5110083;28;19992;-72
2023/09/17 05:29:59;;;;;;;;;;;16.70;1.00;;;;;;5109935;28;20440;-72
2023/09/17 05:32:25;;;;;;;;;;;16.70;1.00;;;;;;5109529;28;20293;-73
2023/09/17 05:34:51;;;;;;;;;;;16.70;1.00;;;;;;5092880;28;19927;-72
2023/09/17 05:37:16;;;;;;;;;;;16.70;1.00;;;;;;5110160;28;19927;-72
2023/09/17 05:39:42;;;;;;;;;;;16.70;1.00;;;;;;5114636;27;19927;-72
2023/09/17 05:42:07;;;;;;;;;;;16.70;1.00;;;;;;5114737;27;20022;-72
2023/09/17 05:44:33;;;;;;;;;;;16.70;1.00;;;;;;5115371;27;19932;-72
2023/09/17 05:46:58;;;;;;;;;;;16.70;1.00;;;;;;5114382;28;19982;-73
2023/09/17 05:49:24;;;;;;;;;;;16.70;1.00;;;;;;5113968;28;19923;-73
2023/09/17 05:51:49;;;;;;;;;;;16.70;1.00;;;;;;5113696;28;19923;-73
2023/09/17 05:54:15;;;;;;;;;;;16.80;1.00;;;;;;5114268;28;19930;-73
2023/09/17 05:56:40;;;;;;;;;;;16.80;1.00;;;;;;5113308;28;19928;-73
2023/09/17 05:59:06;;;;;;;;;;;16.70;1.00;;;;;;5113913;27;19928;-72
2023/09/17 06:01:33;;;;;;;;;;;16.80;1.00;;;;;;5094832;28;20327;-72
2023/09/17 06:03:58;;;;;;;;;;;16.70;1.00;;;;;;5113821;28;19931;-73
2023/09/17 06:06:24;;;;;;;;;;;16.70;1.00;;;;;;5113992;27;19931;-72
2023/09/17 06:08:50;;;;;;;;;;;16.80;1.00;;;;;;5095006;28;20519;-73
2023/09/17 06:11:17;;;;;;;;;;;16.80;1.00;;;;;;5113400;28;20309;-72
2023/09/17 06:13:43;;;;;;;;;;;16.80;1.00;;;;;;5112406;28;20401;-72
2023/09/17 06:16:08;;;;;;;;;;;16.80;1.00;;;;;;5112893;28;19971;-72
2023/09/17 06:18:34;;;;;;;;;;;16.90;1.00;;;;;;5119138;27;20011;-72
2023/09/17 06:21:00;;;;;;;;;;;16.90;1.00;;;;;;5126000;27;19923;-72
2023/09/17 06:23:27;;;;;;;;;;;16.90;1.00;;;;;;5131698;27;19930;-72
2023/09/17 06:25:52;;;;;;;;;;;16.90;1.00;;;;;;5114595;27;20461;-72
2023/09/17 06:28:18;;;;;;;;;;;17.00;1.00;;;;;;5095677;28;19973;-72
2023/09/17 06:30:44;;;;;;;;;;;17.00;1.00;;;;;;5126093;27;19934;-72
2023/09/17 06:33:10;;;;;;;;;;;17.00;1.00;;;;;;5113154;27;20014;-72
2023/09/17 06:35:36;;;;;;;;;;;17.10;1.00;;;;;;5107197;27;20018;-72
2023/09/17 06:38:01;;;;;;;;;;;17.10;1.00;;;;;;5113236;27;20331;-72
2023/09/17 06:40:26;;;;;;;;;;;17.10;1.00;;;;;;5094832;28;19958;-72
2023/09/17 06:42:52;;;;;;;;;;;17.10;1.00;;;;;;5112988;27;20381;-72
2023/09/17 06:45:18;;;;;;;;;;;17.20;1.00;;;;;;5113147;27;19923;-72
2023/09/17 06:47:44;;;;;;;;;;;17.20;1.00;;;;;;5094299;28;19935;-72
2023/09/17 06:50:09;;;;;;;;;;;17.20;1.00;;;;;;5093463;28;20405;-73
2023/09/17 06:52:35;;;;;;;;;;;17.30;1.00;;;;;;5112141;28;19959;-73
2023/09/17 06:55:00;;;;;;;;;;;17.30;1.00;;;;;;5112847;28;20018;-72
2023/09/17 06:57:26;;;;;;;;;;;17.30;1.00;;;;;;5112310;27;19923;-72
2023/09/17 06:59:52;;;;;;;;;;;17.30;1.00;;;;;;5112595;28;20018;-72
2023/09/17 07:02:17;;;;;;;;;;;17.30;1.00;;;;;;5112415;27;19969;-72
2023/09/17 07:04:43;;;;;;;;;;;17.40;1.00;;;;;;5112856;27;20424;-74
2023/09/17 07:07:09;;;;;;;;;;;17.40;1.00;;;;;;5093919;28;19969;-73
2023/09/17 07:09:34;;;;;;;;;;;17.50;1.00;;;;;;5111931;28;19931;-73
2023/09/17 07:12:00;;;;;;;;;;;17.50;1.00;;;;;;5112175;27;19970;-73
2023/09/17 07:14:25;;;;;;;;;;;17.60;1.00;;;;;;5093603;28;19949;-74
2023/09/17 07:16:51;;;;;;;;;;;17.60;1.00;;;;;;5112508;27;19969;-73
2023/09/17 07:19:16;;;;;;;;;;;17.70;1.00;;;;;;5112379;27;19923;-73
2023/09/17 07:21:42;;;;;;;;;;;17.80;1.00;;;;;;5112316;27;19977;-73
2023/09/17 07:24:08;;;;;;;;;;;17.80;1.00;;;;;;5112018;28;19928;-73
2023/09/17 07:26:33;;;;;;;;;;;17.80;1.00;;;;;;5112648;27;20383;-73
2023/09/17 07:28:59;;;;;;;;;;;17.80;1.00;;;;;;5094013;28;19928;-73
2023/09/17 07:31:24;;;;;;;;;;;17.90;1.00;;;;;;5113356;27;19951;-74
2023/09/17 07:33:50;;;;;;;;;;;17.80;1.00;;;;;;5112308;27;19928;-73
2023/09/17 07:36:15;;;;;;;;;;;17.80;1.00;;;;;;5111848;27;19928;-74
2023/09/17 07:38:41;;;;;;;;;;;17.90;1.00;;;;;;5106443;28;19924;-73
2023/09/17 07:41:07;;;;;;;;;;;17.90;1.00;;;;;;5113659;27;20015;-73
2023/09/17 07:43:32;;;;;;;;;;;17.90;1.00;;;;;;5110806;27;19946;-72
2023/09/17 07:45:58;;;;;;;;;;;17.90;1.00;;;;;;5092204;28;19985;-72
2023/09/17 07:48:24;;;;;;;;;;;17.90;1.00;;;;;;5091850;28;19923;-72
2023/09/17 07:50:59;;;;;;;;;;;18.00;1.00;;;;;;5110944;27;19977;-72
2023/09/17 07:53:25;;;;;;;;;;;18.10;1.00;;;;;;5110353;27;20000;-72
2023/09/17 07:55:51;;;;;;;;;;;18.20;1.00;;;;;;5098116;27;20396;-74
2023/09/17 07:58:16;;;;;;;;;;;18.20;1.00;;;;;;5112631;27;20309;-72
2023/09/17 08:00:45;;;;;;;;;;;18.30;1.00;;;;;;5126987;27;19934;-73
2023/09/17 08:03:15;;;;;;;;;;;18.30;1.00;;;;;;5123821;27;20013;-73
2023/09/17 08:05:43;;;;;;;;;;;18.40;1.00;;;;;;5128260;27;20288;-72
2023/09/17 08:08:09;;;;;;;;;;;18.40;1.00;;;;;;5096033;28;20007;-73
2023/09/17 08:10:36;;;;;;;;;;;18.50;1.00;;;;;;5093634;27;20013;-73
2023/09/17 08:13:02;;;;;;;;;;;18.60;1.00;;;;;;5113887;27;20448;-73
2023/09/17 08:15:29;;;;;;;;;;;18.70;1.00;;;;;;5123578;27;19992;-73
2023/09/17 08:17:58;;;;;;;;;;;18.80;1.00;;;;;;5122611;27;19976;-73
2023/09/17 08:20:24;;;;;;;;;;;18.80;1.00;;;;;;5102575;28;19976;-74
2023/09/17 08:22:50;;;;;;;;;;;18.90;1.00;;;;;;5092093;27;19932;-73
2023/09/17 08:25:16;;;;;;;;;;;19.00;1.00;;;;;;5116490;27;19930;-73
2023/09/17 08:27:41;;;;;;;;;;;19.10;1.00;;;;;;5116330;27;20285;-71
2023/09/17 08:30:11;;;;;;;;;;;19.10;1.00;;;;;;5113057;27;19923;-73
2023/09/17 08:32:37;;;;;;;;;;;19.20;1.00;;;;;;5092919;27;20010;-73
2023/09/17 08:35:03;;;;;;;;;;;19.30;1.00;;;;;;5110366;28;20297;-74
2023/09/17 08:37:29;;;;;;;;;;;19.50;1.00;;;;;;5092665;27;19931;-73
2023/09/17 08:39:54;;;;;;;;;;;19.60;1.00;;;;;;5110788;28;19977;-73
2023/09/17 08:42:21;;;;;;;;;;;19.70;1.00;;;;;;5116471;27;19923;-74
2023/09/17 08:44:48;;;;;;;;;;;19.70;99.90;;;;;;5128988;27;19927;-73
2023/09/17 08:47:13;;;;;;;;;;;19.60;99.90;;;;;;5107051;28;20018;-73
2023/09/17 08:49:39;;;;;;;;;;;19.60;99.90;;;;;;5122047;27;20018;-73
2023/09/17 08:52:05;;;;;;;;;;;19.50;99.90;;;;;;5091927;28;20389;-73
2023/09/17 08:54:41;;;;;;;;;;;19.50;99.90;;;;;;5110243;28;20018;-74
2023/09/17 08:57:07;;;;;;;;;;;19.50;99.90;;;;;;5109347;28;20320;-73
2023/09/17 08:59:38;;;;;;;;;;;19.50;99.90;;;;;;5110019;28;19924;-74
2023/09/17 09:02:07;;;;;;;;;;;19.50;99.90;;;;;;5110142;28;19927;-73
2023/09/17 09:04:34;;;;;;;;;;;19.40;99.90;;;;;;5109213;28;19924;-73
2023/09/17 09:07:01;;;;;;;;;;;19.50;99.90;;;;;;5109122;28;20421;-73
2023/09/17 09:09:27;;;;;;;;;;;19.60;99.90;;;;;;5092022;28;19924;-73
2023/09/17 09:11:53;;;;;;;;;;;19.70;99.90;;;;;;5110186;28;19924;-73
2023/09/17 09:14:19;;;;;;;;;;;19.80;99.90;;;;;;5091180;28;20484;-74
2023/09/17 09:16:45;;;;;;;;;;;19.90;99.90;;;;;;5111049;27;20387;-73
2023/09/17 09:19:10;;;;;;;;;;;20.00;99.90;;;;;;5112680;28;19928;-73
2023/09/17 09:21:36;;;;;;;;;;;20.00;99.90;;;;;;5110110;28;20002;-73
2023/09/17 09:24:01;;;;;;;;;;;20.00;93.70;;;;;;5109803;28;19958;-73
2023/09/17 09:26:34;;;;;;;;;;;20.00;66.70;;;;;;5110265;28;19927;-73
2023/09/17 09:29:00;;;;;;;;;;;20.00;72.30;;;;;;5110379;28;19931;-73
2023/09/17 09:31:26;;;;;;;;;;;20.00;51.30;;;;;;5109746;28;19924;-73
2023/09/17 09:33:52;;;;;;;;;;;20.00;1.00;;;;;;5091318;28;19977;-73
2023/09/17 09:36:19;;;;;;;;;;;19.90;1.00;;;;;;5122082;28;19954;-73
2023/09/17 09:38:44;;;;;;;;;;;20.00;1.00;;;;;;5091519;28;19928;-73
2023/09/17 09:41:10;;;;;;;;;;;20.00;1.00;;;;;;5114678;28;20001;-73
2023/09/17 09:43:36;;;;;;;;;;;20.00;1.00;;;;;;5109513;28;21012;-73
2023/09/17 09:46:04;;;;;;;;;;;20.00;1.00;;;;;;5109947;28;20318;-73
2023/09/17 09:48:39;;;;;;;;;;;20.00;99.90;;;;;;5091534;28;19923;-73
2023/09/17 09:51:06;;;;;;;;;;;20.00;99.90;;;;;;5091094;28;20010;-73
2023/09/17 09:53:31;;;;;;;;;;;20.10;99.90;;;;;;5120975;28;19984;-73
2023/09/17 09:55:57;;;;;;;;;;;20.20;99.90;;;;;;5107986;28;19924;-73
2023/09/17 09:58:23;;;;;;;;;;;20.30;99.90;;;;;;5112480;28;19923;-73
2023/09/17 10:00:49;;;;;;;;;;;20.40;99.90;;;;;;5110495;28;19962;-73
2023/09/17 10:03:17;;;;;;;;;;;20.50;99.90;;;;;;5109544;28;19979;-73
2023/09/17 10:05:44;;;;;;;;;;;20.60;1.00;;;;;;5127271;28;20304;-73
2023/09/17 10:08:11;;;;;;;;;;;20.80;1.00;;;;;;5114153;28;19945;-73
2023/09/17 10:10:37;;;;;;;;;;;20.90;99.90;;;;;;5103338;28;19986;-73
2023/09/17 10:13:05;;;;;;;;;;;21.10;99.90;;;;;;5120700;28;19928;-74
2023/09/17 10:15:34;;;;;;;;;;;21.50;99.90;;;;;;5112125;28;19924;-74
2023/09/17 10:18:00;;;;;;;;;;;21.70;99.90;;;;;;5113461;28;19998;-73
2023/09/17 10:20:26;;;;;;;;;;;21.70;99.90;;;;;;5111095;28;19923;-73
2023/09/17 10:22:52;;;;;;;;;;;21.80;1.00;;;;;;5093240;28;20005;-74
2023/09/17 10:25:18;;;;;;;;;;;21.80;99.90;;;;;;5112607;27;20278;-73
2023/09/17 10:27:44;;;;;;;;;;;21.70;99.90;;;;;;5113943;27;19930;-73
2023/09/17 10:30:12;;;;;;;;;;;21.60;72.30;;;;;;5118253;27;19976;-74
2023/09/17 10:32:38;;;;;;;;;;;21.60;99.90;;;;;;5098717;27;20010;-73
2023/09/17 10:35:05;;;;;;;;;;;21.50;99.90;;;;;;5117618;27;19923;-73
2023/09/17 10:37:31;;;;;;;;;;;21.40;99.90;;;;;;5116055;27;21170;-73
2023/09/17 10:39:57;;;;;;;;;;;21.30;98.40;;;;;;5116401;27;20013;-73
2023/09/17 10:42:25;;;;;;;;;;;21.20;99.90;;;;;;5113770;27;19969;-73
2023/09/17 10:44:53;;;;;;;;;;;21.20;99.90;;;;;;5097156;28;19923;-73
2023/09/17 10:47:20;;;;;;;;;;;21.00;13.90;;;;;;5116889;27;19936;-73
2023/09/17 10:49:46;;;;;;;;;;;20.90;1.00;;;;;;5113018;27;19971;-73
2023/09/17 10:52:11;;;;;;;;;;;20.80;15.20;;;;;;5113862;27;19959;-72
2023/09/17 10:54:37;;;;;;;;;;;20.70;1.00;;;;;;5094085;28;20420;-73
2023/09/17 10:57:06;;;;;;;;;;;20.60;1.00;;;;;;5115472;27;20335;-73
2023/09/17 10:59:32;;;;;;;;;;;20.60;99.90;;;;;;5111235;28;20433;-73
2023/09/17 11:01:58;;;;;;;;;;;20.60;99.90;;;;;;5110420;27;19923;-73
2023/09/17 11:04:25;;;;;;;;;;;20.60;1.00;;;;;;5115363;27;19924;-73
2023/09/17 11:06:52;;;;;;;;;;;20.70;1.50;;;;;;5113288;27;19927;-73
2023/09/17 11:09:18;;;;;;;;;;;20.90;99.90;;;;;;5113574;27;19932;-73
2023/09/17 11:11:43;;;;;;;;;;;21.00;99.90;;;;;;5111849;27;19931;-73
2023/09/17 11:14:10;;;;;;;;;;;21.10;99.90;;;;;;5107071;28;20010;-73
2023/09/17 11:16:36;;;;;;;;;;;21.20;99.90;;;;;;5111380;27;20016;-74
2023/09/17 11:19:06;;;;;;;;;;;21.20;99.90;;;;;;5093581;28;20439;-74
2023/09/17 11:21:35;;;;;;;;;;;21.10;41.30;;;;;;5126173;27;19931;-73
2023/09/17 11:24:04;;;;;;;;;;;21.10;5.80;;;;;;5129458;27;19937;-74
2023/09/17 11:26:31;;;;;;;;;;;21.00;1.00;;;;;;5103679;28;19923;-73
2023/09/17 11:28:58;;;;;;;;;;;20.90;8.60;;;;;;5111438;28;20389;-73
2023/09/17 11:31:27;;;;;;;;;;;20.90;15.30;;;;;;5119950;27;19927;-73
2023/09/17 11:33:52;;;;;;;;;;;20.80;1.00;;;;;;5111269;28;19935;-73
2023/09/17 11:36:18;;;;;;;;;;;20.70;26.00;;;;;;5111371;27;19924;-73
2023/09/17 11:38:47;;;;;;;;;;;20.80;99.90;;;;;;5111120;28;19927;-73
2023/09/17 11:41:18;;;;;;;;;;;20.90;99.90;;;;;;5094131;28;19923;-73
2023/09/17 11:43:45;;;;;;;;;;;21.00;99.90;;;;;;5112390;27;19928;-73
2023/09/17 11:46:12;;;;;;;;;;;21.50;99.90;;;;;;5076186;28;19924;-73
2023/09/17 11:48:38;;;;;;;;;;;22.10;99.90;;;;;;5093387;28;20289;-74
2023/09/17 11:51:34;;;;;;;;;;;22.60;1.00;;;;;;5117325;27;19924;-74
2023/09/17 11:54:01;;;;;;;;;;;23.00;99.90;;;;;;5104964;27;19953;-73
2023/09/17 11:56:28;;;;;;;;;;;23.30;1.00;;;;;;5111058;28;20388;-73
2023/09/17 11:59:08;;;;;;;;;;;23.40;99.90;;;;;;5114625;27;20321;-73
2023/09/17 12:01:35;;;;;;;;;;;23.40;99.90;;;;;;5128295;27;19977;-73
2023/09/17 12:04:02;;;;;;;;;;;23.30;99.90;;;;;;5119029;27;19928;-73
2023/09/17 12:06:27;;;;;;;;;;;23.30;99.90;;;;;;5127860;27;20309;-74
2023/09/17 12:08:55;;;;;;;;;;;23.10;1.00;;;;;;5117378;27;19924;-73
2023/09/17 12:11:24;;;;;;;;;;;23.00;99.90;;;;;;5111196;28;19923;-74
2023/09/17 12:13:53;;;;;;;;;;;22.90;99.90;;;;;;5099440;27;20010;-73
2023/09/17 12:16:21;;;;;;;;;;;22.70;99.90;;;;;;5114703;27;19968;-73
2023/09/17 12:18:46;;;;;;;;;;;22.60;1.00;;;;;;5118386;27;19931;-73
2023/09/17 12:21:12;;;;;;;;;;;22.60;1.00;;;;;;5124305;27;19924;-73
2023/09/17 12:23:47;;;;;;;;;;;22.50;33.10;;;;;;5095456;28;19925;-73
2023/09/17 12:26:21;;;;;;;;;;;22.40;5.70;;;;;;5110023;28;20014;-73
2023/09/17 12:28:47;;;;;;;;;;;22.40;66.50;;;;;;5110070;28;19975;-73
2023/09/17 12:31:13;;;;;;;;;;;22.30;99.90;;;;;;5122684;27;21244;-73
2023/09/17 12:33:39;;;;;;;;;;;22.30;1.00;;;;;;5101370;27;20455;-73
2023/09/17 12:36:05;;;;;;;;;;;22.20;99.90;;;;;;5114409;27;20032;-73
2023/09/17 12:38:31;;;;;;;;;;;22.10;29.70;;;;;;5110502;28;19970;-73
2023/09/17 12:40:56;;;;;;;;;;;22.10;75.90;;;;;;5111324;27;19924;-73
2023/09/17 12:43:22;;;;;;;;;;;22.00;99.90;;;;;;5111192;28;19931;-73
2023/09/17 12:45:48;;;;;;;;;;;22.00;1.00;;;;;;5110497;27;19924;-73
2023/09/17 12:48:13;;;;;;;;;;;22.00;99.90;;;;;;5109711;28;19923;-73
2023/09/17 12:50:42;;;;;;;;;;;22.10;57.20;;;;;;5110619;27;20309;-73
2023/09/17 12:53:08;;;;;;;;;;;22.40;93.40;;;;;;5092180;28;20518;-73
2023/09/17 12:55:33;;;;;;;;;;;22.50;99.90;;;;;;5110183;28;19932;-73
2023/09/17 12:57:59;;;;;;;;;;;22.60;1.00;;;;;;5092313;28;20072;-73
2023/09/17 13:00:24;;;;;;;;;;;22.80;1.00;;;;;;5109901;28;20572;-73
2023/09/17 13:02:53;;;;;;;;;;;22.80;99.90;;;;;;5111544;27;19981;-73
2023/09/17 13:05:20;;;;;;;;;;;23.00;99.90;;;;;;5110676;27;19950;-73
2023/09/17 13:07:45;;;;;;;;;;;23.50;68.10;;;;;;5110258;28;19924;-73
2023/09/17 13:10:11;;;;;;;;;;;24.20;99.90;;;;;;5110470;27;20321;-73
2023/09/17 13:12:36;;;;;;;;;;;24.60;80.20;;;;;;5091878;28;19928;-74
2023/09/17 13:15:03;;;;;;;;;;;24.90;99.90;;;;;;5109708;28;20388;-74
2023/09/17 13:17:29;;;;;;;;;;;24.70;99.90;;;;;;5110364;28;19923;-73
2023/09/17 13:19:58;;;;;;;;;;;24.40;1.00;;;;;;5091510;28;19942;-73
2023/09/17 13:22:23;;;;;;;;;;;24.10;13.30;;;;;;5110295;28;20024;-73
2023/09/17 13:24:49;;;;;;;;;;;23.90;54.10;;;;;;5108157;28;19959;-73
2023/09/17 13:27:15;;;;;;;;;;;23.80;99.90;;;;;;5109951;28;20453;-73
2023/09/17 13:29:41;;;;;;;;;;;23.60;99.90;;;;;;5109356;28;19931;-73
2023/09/17 13:32:09;;;;;;;;;;;23.60;99.90;;;;;;5110231;28;20018;-73
2023/09/17 13:34:36;;;;;;;;;;;23.50;99.90;;;;;;5090920;28;19924;-73
2023/09/17 13:37:02;;;;;;;;;;;23.40;1.00;;;;;;5109335;28;20018;-73
2023/09/17 13:39:27;;;;;;;;;;;23.30;1.00;;;;;;5109129;28;20089;-73
2023/09/17 13:41:58;;;;;;;;;;;23.30;99.90;;;;;;5119788;28;20403;-73
2023/09/17 13:44:24;;;;;;;;;;;23.30;99.90;;;;;;5117922;28;20010;-73
2023/09/17 13:46:50;;;;;;;;;;;23.20;99.90;;;;;;5106555;28;20014;-73
2023/09/17 13:49:15;;;;;;;;;;;23.20;99.90;;;;;;5109498;28;19949;-73
2023/09/17 13:51:41;;;;;;;;;;;23.10;99.90;;;;;;5109360;28;19924;-73
2023/09/17 13:54:06;;;;;;;;;;;23.10;99.90;;;;;;5120633;28;19928;-74
2023/09/17 13:56:32;;;;;;;;;;;23.10;99.90;;;;;;5110798;28;19927;-73
2023/09/17 13:58:57;;;;;;;;;;;23.00;1.00;;;;;;5114258;27;20006;-73
2023/09/17 14:01:23;;;;;;;;;;;23.10;26.40;;;;;;5102159;28;20018;-73
2023/09/17 14:03:48;;;;;;;;;;;23.00;77.30;;;;;;5124095;27;20714;-73
2023/09/17 14:06:14;;;;;;;;;;;23.00;99.90;;;;;;5113374;27;20019;-73
2023/09/17 14:08:40;;;;;;;;;;;23.00;57.00;;;;;;5112979;27;20305;-72
2023/09/17 14:11:05;;;;;;;;;;;23.00;99.90;;;;;;5099511;28;20348;-72
2023/09/17 14:13:33;;;;;;;;;;;22.90;99.90;;;;;;5112533;28;20007;-73
2023/09/17 14:15:58;;;;;;;;;;;23.00;99.90;;;;;;5123824;27;20014;-73
2023/09/17 14:18:24;;;;;;;;;;;23.00;99.90;;;;;;5113681;27;20014;-73